createdAt,value
2023-02-19T00:01:39.283Z,97073.16
2023-02-19T00:03:42.168Z,97073.91
2023-02-19T00:05:44.000Z,97063.19
2023-02-19T00:07:45.492Z,97050.47
2023-02-19T00:09:47.042Z,97062.00
2023-02-19T00:11:55.253Z,97058.16
2023-02-19T00:13:58.943Z,97048.50
2023-02-19T00:16:07.601Z,97041.63
2023-02-19T00:18:09.248Z,97045.06
2023-02-19T00:20:10.919Z,97050.84
2023-02-19T00:22:12.517Z,97041.59
2023-02-19T00:24:15.167Z,97046.22
2023-02-19T00:26:18.972Z,97044.72
2023-02-19T00:28:23.414Z,97049.72
2023-02-19T00:30:25.241Z,97047.75
2023-02-19T00:32:26.753Z,97035.88
2023-02-19T00:34:28.457Z,97039.34
2023-02-19T00:36:31.881Z,97020.50
2023-02-19T00:38:36.954Z,97023.59
2023-02-19T00:40:39.325Z,97016.25
2023-02-19T00:42:40.791Z,97007.78
2023-02-19T00:44:42.327Z,97009.38
2023-02-19T00:46:46.873Z,97016.69
2023-02-19T00:48:48.881Z,97017.06
2023-02-19T00:50:50.450Z,97012.81
2023-02-19T00:52:52.063Z,97002.41
2023-02-19T00:54:53.762Z,97008.56
2023-02-19T00:56:55.616Z,97018.97
2023-02-19T00:58:57.312Z,97020.91
2023-02-19T01:00:58.938Z,97021.66
2023-02-19T01:03:00.455Z,97028.25
2023-02-19T01:05:02.011Z,97023.59
2023-02-19T01:07:03.962Z,97018.97
2023-02-19T01:09:07.665Z,97019.38
2023-02-19T01:11:10.408Z,97010.91
2023-02-19T01:13:12.632Z,97001.31
2023-02-19T01:15:14.302Z,97006.69
2023-02-19T01:17:15.779Z,97015.53
2023-02-19T01:19:17.429Z,97009.41
2023-02-19T01:21:23.526Z,97014.75
2023-02-19T01:23:25.169Z,97015.16
2023-02-19T01:25:26.707Z,97012.44
2023-02-19T01:27:28.633Z,96998.25
2023-02-19T01:29:30.926Z,97004.75
2023-02-19T01:31:32.876Z,97002.06
2023-02-19T01:33:36.464Z,96984.75
2023-02-19T01:35:39.727Z,96993.25
2023-02-19T01:37:41.340Z,96985.50
2023-02-19T01:39:42.808Z,96992.06
2023-02-19T01:41:44.431Z,96987.03
2023-02-19T01:44:02.686Z,96985.50
2023-02-19T01:46:04.319Z,96997.06
2023-02-19T01:48:17.388Z,96986.28
2023-02-19T01:50:19.059Z,96993.59
2023-02-19T01:52:34.337Z,96991.31
2023-02-19T01:54:40.460Z,96980.16
2023-02-19T01:56:43.833Z,96984.00
2023-02-19T01:58:46.160Z,96985.53
2023-02-19T02:00:48.105Z,96975.19
2023-02-19T02:02:52.794Z,96972.09
2023-02-19T02:05:00.116Z,96969.03
2023-02-19T02:07:24.315Z,96971.31
2023-02-19T02:09:47.916Z,96969.38
2023-02-19T02:11:52.070Z,96964.78
2023-02-19T02:13:54.242Z,96957.09
2023-02-19T02:16:23.400Z,96960.56
2023-02-19T02:18:58.454Z,96969.41
2023-02-19T02:21:38.704Z,96965.53
2023-02-19T02:24:13.198Z,96962.09
2023-02-19T02:26:42.834Z,96947.91
2023-02-19T02:29:22.737Z,96947.88
2023-02-19T02:32:06.093Z,96949.84
2023-02-19T02:34:27.228Z,96951.00
2023-02-19T02:36:37.310Z,96957.91
2023-02-19T02:38:44.016Z,96944.06
2023-02-19T02:40:47.463Z,96942.16
2023-02-19T02:42:50.494Z,96939.44
2023-02-19T02:45:10.474Z,96941.00
2023-02-19T02:47:36.135Z,96941.38
2023-02-19T02:49:58.210Z,96933.28
2023-02-19T02:52:21.670Z,96942.16
2023-02-19T02:54:47.158Z,96941.75
2023-02-19T03:00:12.253Z,96940.19
2023-02-19T03:02:19.124Z,96937.13
2023-02-19T03:05:11.575Z,96932.50
2023-02-19T03:07:13.257Z,96932.94
2023-02-19T03:09:21.919Z,96933.34
2023-02-19T03:11:43.082Z,96933.31
2023-02-19T03:14:03.582Z,96927.19
2023-02-19T03:16:36.683Z,96920.63
2023-02-19T03:19:01.595Z,96917.97
2023-02-19T03:21:05.489Z,96930.66
2023-02-19T03:23:10.609Z,96921.03
2023-02-19T03:25:37.420Z,96915.25
2023-02-19T03:27:42.263Z,96918.72
2023-02-19T03:29:48.649Z,96913.72
2023-02-19T03:31:57.525Z,96905.69
2023-02-19T03:34:08.569Z,96903.38
2023-02-19T03:36:15.349Z,96900.66
2023-02-19T03:38:52.018Z,96916.75
2023-02-19T03:41:00.114Z,96903.34
2023-02-19T03:43:23.163Z,96904.47
2023-02-19T03:45:44.059Z,96916.81
2023-02-19T03:48:17.728Z,96927.94
2023-02-19T03:50:46.103Z,96914.09
2023-02-19T03:52:56.825Z,96919.84
2023-02-19T03:55:23.567Z,96921.00
2023-02-19T03:57:45.321Z,96917.94
2023-02-19T03:59:59.715Z,96914.44
2023-02-19T04:02:09.682Z,96919.09
2023-02-19T04:04:25.149Z,96926.81
2023-02-19T04:06:29.725Z,96924.88
2023-02-19T04:08:35.381Z,96920.63
2023-02-19T04:10:42.751Z,96934.88
2023-02-19T04:12:50.701Z,96938.31
2023-02-19T04:15:00.628Z,96930.25
2023-02-19T04:17:06.948Z,96936.41
2023-02-19T04:19:12.385Z,96928.72
2023-02-19T04:21:15.119Z,96934.88
2023-02-19T04:23:19.150Z,96933.69
2023-02-19T04:25:23.361Z,96936.75
2023-02-19T04:27:24.923Z,96942.50
2023-02-19T04:29:26.415Z,96942.91
2023-02-19T04:31:31.010Z,96934.09
2023-02-19T04:33:32.663Z,96939.09
2023-02-19T04:35:35.213Z,96940.25
2023-02-19T04:37:36.755Z,96948.72
2023-02-19T04:39:38.288Z,96945.63
2023-02-19T04:41:39.966Z,96953.34
2023-02-19T04:43:41.788Z,96954.09
2023-02-19T04:45:43.375Z,96959.09
2023-02-19T04:47:45.067Z,96945.25
2023-02-19T04:49:46.612Z,96944.88
2023-02-19T04:51:48.441Z,96951.41
2023-02-19T04:53:49.946Z,96952.94
2023-02-19T04:55:53.396Z,96949.50
2023-02-19T04:57:54.928Z,96950.25
2023-02-19T04:59:56.420Z,96968.69
2023-02-19T05:01:58.516Z,96972.53
2023-02-19T05:04:00.078Z,96970.63
2023-02-19T05:06:10.564Z,96962.53
2023-02-19T05:08:12.052Z,96981.78
2023-02-19T05:10:13.685Z,96972.13
2023-02-19T05:12:15.185Z,96977.50
2023-02-19T05:14:17.215Z,96967.13
2023-02-19T05:16:18.872Z,96967.94
2023-02-19T05:18:20.491Z,96980.22
2023-02-19T05:20:22.938Z,96969.88
2023-02-19T05:22:25.186Z,96971.00
2023-02-19T05:24:27.490Z,96979.44
2023-02-19T05:26:31.087Z,96976.75
2023-02-19T05:28:33.577Z,96967.94
2023-02-19T05:30:35.449Z,96966.00
2023-02-19T05:32:37.640Z,96971.00
2023-02-19T05:34:39.132Z,96961.78
2023-02-19T05:36:41.449Z,96963.69
2023-02-19T05:38:43.104Z,96969.06
2023-02-19T05:40:46.405Z,96973.69
2023-02-19T05:42:47.895Z,96975.59
2023-02-19T05:44:49.404Z,96969.47
2023-02-19T05:46:50.962Z,96973.31
2023-02-19T05:48:53.361Z,96973.31
2023-02-19T05:50:54.859Z,96976.75
2023-02-19T05:52:56.401Z,96983.28
2023-02-19T05:54:57.864Z,96977.16
2023-02-19T05:56:59.563Z,96977.91
2023-02-19T05:59:08.007Z,96975.25
2023-02-19T06:01:16.824Z,96966.78
2023-02-19T06:03:18.393Z,96979.09
2023-02-19T06:05:20.141Z,96971.38
2023-02-19T06:07:21.688Z,96984.81
2023-02-19T06:09:23.319Z,96986.38
2023-02-19T06:11:25.014Z,96993.28
2023-02-19T06:13:26.468Z,96998.28
2023-02-19T06:15:28.027Z,96995.22
2023-02-19T06:17:29.535Z,96996.34
2023-02-19T06:19:31.207Z,96996.75
2023-02-19T06:21:32.814Z,97014.03
2023-02-19T06:23:34.674Z,97001.72
2023-02-19T06:25:36.249Z,97002.53
2023-02-19T06:27:38.425Z,97006.34
2023-02-19T06:29:40.163Z,97025.56
2023-02-19T06:31:42.218Z,97018.66
2023-02-19T06:33:44.219Z,97030.19
2023-02-19T06:35:45.695Z,97021.34
2023-02-19T06:37:48.364Z,97025.97
2023-02-19T06:39:50.958Z,97040.56
2023-02-19T06:41:54.929Z,97039.00
2023-02-19T06:43:59.998Z,97037.09
2023-02-19T06:46:03.664Z,97044.78
2023-02-19T06:48:05.626Z,97049.00
2023-02-19T06:50:07.983Z,97039.78
2023-02-19T06:52:09.932Z,97050.16
2023-02-19T06:54:11.437Z,97056.72
2023-02-19T06:56:31.185Z,97060.16
2023-02-19T06:58:33.814Z,97069.75
2023-02-19T07:00:35.781Z,97079.75
2023-02-19T07:02:37.332Z,97066.69
2023-02-19T07:04:38.975Z,97082.81
2023-02-19T07:06:40.647Z,97084.00
2023-02-19T07:08:42.217Z,97083.22
2023-02-19T07:10:45.067Z,97097.06
2023-02-19T07:12:46.744Z,97089.00
2023-02-19T07:14:48.322Z,97103.19
2023-02-19T07:16:49.894Z,97082.47
2023-02-19T07:18:52.179Z,97094.78
2023-02-19T07:20:53.660Z,97096.28
2023-02-19T07:22:57.139Z,97098.97
2023-02-19T07:24:58.706Z,97100.91
2023-02-19T07:27:00.212Z,97095.13
2023-02-19T07:29:01.983Z,97100.91
2023-02-19T07:31:04.455Z,97098.59
2023-02-19T07:33:06.792Z,97103.22
2023-02-19T07:35:09.583Z,97117.06
2023-02-19T07:37:11.437Z,97113.22
2023-02-19T07:39:15.602Z,97122.03
2023-02-19T07:41:17.140Z,97123.56
2023-02-19T07:43:19.304Z,97138.97
2023-02-19T07:45:20.882Z,97132.06
2023-02-19T07:47:22.551Z,97139.34
2023-02-19T07:49:24.513Z,97140.13
2023-02-19T07:51:26.039Z,97139.72
2023-02-19T07:53:28.342Z,97135.88
2023-02-19T07:55:32.194Z,97145.50
2023-02-19T07:57:33.752Z,97147.44
2023-02-19T07:59:35.246Z,97155.50
2023-02-19T08:01:55.267Z,97149.34
2023-02-19T08:03:57.770Z,97153.56
2023-02-19T08:05:59.321Z,97157.78
2023-02-19T08:08:00.923Z,97150.13
2023-02-19T08:10:22.953Z,97157.78
2023-02-19T08:12:43.420Z,97158.56
2023-02-19T08:14:45.044Z,97158.19
2023-02-19T08:16:51.153Z,97166.25
2023-02-19T08:18:52.747Z,97167.03
2023-02-19T08:20:55.754Z,97166.28
2023-02-19T08:22:57.739Z,97170.09
2023-02-19T08:24:59.557Z,97173.94
2023-02-19T08:27:01.082Z,97176.63
2023-02-19T08:29:04.472Z,97180.50
2023-02-19T08:31:07.802Z,97187.78
2023-02-19T08:33:12.137Z,97185.09
2023-02-19T08:35:13.705Z,97193.16
2023-02-19T08:37:15.194Z,97200.06
2023-02-19T08:39:16.687Z,97212.00
2023-02-19T08:41:18.594Z,97207.75
2023-02-19T08:43:20.173Z,97207.75
2023-02-19T08:45:23.176Z,97216.22
2023-02-19T08:47:24.998Z,97210.09
2023-02-19T08:49:27.467Z,97220.47
2023-02-19T08:51:28.978Z,97223.91
2023-02-19T08:53:34.779Z,97218.13
2023-02-19T08:55:38.371Z,97219.69
2023-02-19T08:57:40.148Z,97236.97
2023-02-19T08:59:41.636Z,97245.44
2023-02-19T09:01:43.155Z,97229.66
2023-02-19T09:03:44.960Z,97228.91
2023-02-19T09:05:47.098Z,97243.09
2023-02-19T09:07:48.663Z,97234.28
2023-02-19T09:09:50.231Z,97234.66
2023-02-19T09:11:51.943Z,97237.72
2023-02-19T09:13:55.959Z,97236.22
2023-02-19T09:15:57.720Z,97234.72
2023-02-19T09:17:59.685Z,97232.00
2023-02-19T09:20:01.156Z,97243.16
2023-02-19T09:22:04.211Z,97238.94
2023-02-19T09:24:08.242Z,97237.00
2023-02-19T09:26:11.387Z,97237.00
2023-02-19T09:28:12.933Z,97246.97
2023-02-19T09:30:15.188Z,97252.38
2023-02-19T09:32:18.803Z,97253.13
2023-02-19T09:34:20.764Z,97253.91
2023-02-19T09:36:22.288Z,97267.31
2023-02-19T09:38:24.145Z,97265.81
2023-02-19T09:40:26.601Z,97263.53
2023-02-19T09:42:31.504Z,97263.91
2023-02-19T09:44:36.189Z,97251.97
2023-02-19T09:46:51.308Z,97247.78
2023-02-19T09:48:55.717Z,97256.59
2023-02-19T09:50:58.863Z,97265.81
2023-02-19T09:53:04.757Z,97260.78
2023-02-19T09:55:16.224Z,97265.03
2023-02-19T09:57:21.228Z,97256.97
2023-02-19T09:59:33.756Z,97255.81
2023-02-19T10:01:39.218Z,97263.16
2023-02-19T10:03:46.836Z,97253.13
2023-02-19T10:05:48.500Z,97258.53
2023-02-19T10:07:53.454Z,97269.66
2023-02-19T10:10:02.160Z,97275.81
2023-02-19T10:12:13.378Z,97284.66
2023-02-19T10:14:22.088Z,97280.06
2023-02-19T10:16:28.132Z,97282.34
2023-02-19T10:18:37.718Z,97293.53
2023-02-19T10:20:39.903Z,97288.53
2023-02-19T10:22:41.624Z,97290.81
2023-02-19T10:24:44.141Z,97289.31
2023-02-19T10:26:45.790Z,97293.16
2023-02-19T10:28:47.272Z,97300.47
2023-02-19T10:30:54.201Z,97298.16
2023-02-19T10:33:25.959Z,97302.00
2023-02-19T10:35:27.933Z,97300.09
2023-02-19T10:37:29.755Z,97305.09
2023-02-19T10:39:42.047Z,97308.59
2023-02-19T10:41:44.401Z,97320.53
2023-02-19T10:43:54.193Z,97319.31
2023-02-19T10:45:56.126Z,97324.69
2023-02-19T10:47:58.148Z,97330.13
2023-02-19T10:50:02.572Z,97324.72
2023-02-19T10:52:36.161Z,97335.09
2023-02-19T10:54:40.776Z,97335.09
2023-02-19T10:56:42.407Z,97345.88
2023-02-19T10:58:45.264Z,97353.53
2023-02-19T11:00:46.802Z,97348.59
2023-02-19T11:03:21.719Z,97361.66
2023-02-19T11:05:24.116Z,97358.63
2023-02-19T11:07:26.186Z,97364.38
2023-02-19T11:09:37.643Z,97360.22
2023-02-19T11:11:40.629Z,97362.94
2023-02-19T11:13:45.908Z,97356.38
2023-02-19T11:16:00.877Z,97361.78
2023-02-19T11:18:20.534Z,97359.09
2023-02-19T11:20:26.062Z,97371.78
2023-02-19T11:22:46.686Z,97374.88
2023-02-19T11:24:56.148Z,97372.56
2023-02-19T11:27:05.829Z,97377.19
2023-02-19T11:29:19.986Z,97384.91
2023-02-19T11:31:31.461Z,97397.22
2023-02-19T11:33:33.344Z,97386.81
2023-02-19T11:35:34.846Z,97389.88
2023-02-19T11:37:36.526Z,97392.56
2023-02-19T11:39:40.262Z,97383.72
2023-02-19T11:42:00.354Z,97382.53
2023-02-19T11:44:30.243Z,97385.59
2023-02-19T11:46:46.851Z,97387.56
2023-02-19T11:49:12.088Z,97392.97
2023-02-19T11:51:18.134Z,97391.06
2023-02-19T11:53:28.436Z,97376.44
2023-02-19T11:55:57.369Z,97380.94
2023-02-19T11:58:38.347Z,97371.00
2023-02-19T12:00:55.287Z,97367.88
2023-02-19T12:03:15.635Z,97377.16
2023-02-19T12:05:19.326Z,97382.53
2023-02-19T12:07:29.656Z,97376.41
2023-02-19T12:09:57.568Z,97379.13
2023-02-19T12:12:06.611Z,97373.72
2023-02-19T12:14:17.761Z,97372.56
2023-02-19T12:16:38.709Z,97373.72
2023-02-19T12:19:08.259Z,97382.97
2023-02-19T12:21:26.117Z,97386.41
2023-02-19T12:23:40.186Z,97379.50
2023-02-19T12:25:55.742Z,97377.97
2023-02-19T12:28:16.818Z,97386.03
2023-02-19T12:30:51.758Z,97392.22
2023-02-19T12:33:18.207Z,97397.19
2023-02-19T12:35:41.997Z,97385.69
2023-02-19T12:38:14.082Z,97399.94
2023-02-19T12:40:52.948Z,97405.69
2023-02-19T12:43:03.440Z,97405.31
2023-02-19T12:45:16.148Z,97394.16
2023-02-19T12:47:25.733Z,97397.22
2023-02-19T12:49:33.644Z,97403.41
2023-02-19T12:51:47.259Z,97386.06
2023-02-19T12:53:59.293Z,97379.47
2023-02-19T12:56:06.615Z,97380.28
2023-02-19T12:58:18.675Z,97376.41
2023-02-19T13:00:43.449Z,97381.03
2023-02-19T13:03:22.593Z,97378.31
2023-02-19T13:05:29.514Z,97383.75
2023-02-19T13:07:55.562Z,97366.03
2023-02-19T13:10:26.114Z,97371.81
2023-02-19T13:12:35.744Z,97371.00
2023-02-19T13:14:42.096Z,97375.28
2023-02-19T13:16:48.676Z,97372.56
2023-02-19T13:19:01.951Z,97376.03
2023-02-19T13:21:06.094Z,97380.28
2023-02-19T13:23:50.215Z,97388.75
2023-02-19T13:26:38.664Z,97389.53
2023-02-19T13:28:52.482Z,97387.56
2023-02-19T13:31:19.499Z,97391.44
2023-02-19T13:33:33.128Z,97386.81
2023-02-19T13:35:55.929Z,97378.28
2023-02-19T13:38:02.402Z,97387.19
2023-02-19T13:40:18.852Z,97378.69
2023-02-19T13:42:40.636Z,97389.13
2023-02-19T13:44:48.068Z,97392.59
2023-02-19T13:46:50.875Z,97382.19
2023-02-19T13:49:25.117Z,97383.28
2023-02-19T13:51:35.745Z,97387.56
2023-02-19T13:53:46.022Z,97407.88
2023-02-19T13:55:52.801Z,97416.19
2023-02-19T13:57:54.549Z,97408.34
2023-02-19T14:00:00.195Z,97403.16
2023-02-19T14:02:02.184Z,97416.06
2023-02-19T14:04:20.769Z,97421.50
2023-02-19T14:06:22.891Z,97420.38
2023-02-19T14:08:47.809Z,97423.44
2023-02-19T14:10:57.691Z,97421.91
2023-02-19T14:12:59.328Z,97411.88
2023-02-19T14:15:40.357Z,97421.13
2023-02-19T14:17:43.726Z,97429.59
2023-02-19T14:19:49.653Z,97422.66
2023-02-19T14:21:51.325Z,97417.66
2023-02-19T14:23:57.245Z,97425.75
2023-02-19T14:26:01.133Z,97427.31
2023-02-19T14:28:15.978Z,97423.44
2023-02-19T14:30:17.998Z,97423.41
2023-02-19T14:32:20.566Z,97430.72
2023-02-19T14:34:24.774Z,97429.59
2023-02-19T14:36:40.539Z,97427.66
2023-02-19T14:38:47.572Z,97438.81
2023-02-19T14:40:50.422Z,97434.63
2023-02-19T14:42:57.279Z,97436.16
2023-02-19T14:45:03.464Z,97450.78
2023-02-19T14:47:09.289Z,97436.16
2023-02-19T14:49:27.748Z,97444.63
2023-02-19T14:51:36.016Z,97446.16
2023-02-19T14:53:39.558Z,97455.78
2023-02-19T14:55:42.784Z,97442.66
2023-02-19T14:57:47.339Z,97442.31
2023-02-19T14:59:58.634Z,97441.13
2023-02-19T15:02:04.432Z,97436.50
2023-02-19T15:04:06.763Z,97433.03
2023-02-19T15:06:16.847Z,97440.38
2023-02-19T15:08:29.372Z,97439.59
2023-02-19T15:10:32.574Z,97444.97
2023-02-19T15:12:45.446Z,97429.97
2023-02-19T15:14:49.608Z,97436.53
2023-02-19T15:16:58.554Z,97437.31
2023-02-19T15:19:00.464Z,97452.31
2023-02-19T15:21:05.555Z,97453.84
2023-02-19T15:23:10.888Z,97456.91
2023-02-19T15:25:18.029Z,97461.94
2023-02-19T15:27:22.735Z,97461.19
2023-02-19T15:29:26.726Z,97460.75
2023-02-19T15:31:28.424Z,97456.16
2023-02-19T15:33:30.689Z,97459.66
2023-02-19T15:35:33.308Z,97458.88
2023-02-19T15:37:35.998Z,97453.88
2023-02-19T15:39:46.466Z,97466.22
2023-02-19T15:41:59.120Z,97469.63
2023-02-19T15:44:07.272Z,97471.97
2023-02-19T15:46:19.510Z,97475.44
2023-02-19T15:48:27.313Z,97478.88
2023-02-19T15:50:31.688Z,97488.13
2023-02-19T15:52:40.541Z,97478.88
2023-02-19T15:54:54.845Z,97470.75
2023-02-19T15:57:02.526Z,97464.59
2023-02-19T15:59:26.377Z,97468.78
2023-02-19T16:01:35.185Z,97457.28
2023-02-19T16:03:37.642Z,97475.00
2023-02-19T16:05:41.669Z,97468.03
2023-02-19T16:07:43.933Z,97461.84
2023-02-19T16:09:45.560Z,97453.75
2023-02-19T16:11:56.966Z,97454.97
2023-02-19T16:14:23.332Z,97454.59
2023-02-19T16:16:29.808Z,97453.81
2023-02-19T16:18:33.798Z,97453.41
2023-02-19T16:20:35.978Z,97448.44
2023-02-19T16:22:42.586Z,97448.81
2023-02-19T16:24:47.327Z,97459.25
2023-02-19T16:26:49.036Z,97456.53
2023-02-19T16:28:53.057Z,97454.22
2023-02-19T16:31:00.082Z,97458.47
2023-02-19T16:33:21.469Z,97460.38
2023-02-19T16:35:39.746Z,97461.13
2023-02-19T16:37:57.637Z,97475.75
2023-02-19T16:40:08.345Z,97469.56
2023-02-19T16:42:13.478Z,97469.56
2023-02-19T16:44:21.111Z,97466.91
2023-02-19T16:46:23.319Z,97470.75
2023-02-19T16:48:25.031Z,97466.50
2023-02-19T16:50:29.419Z,97472.25
2023-02-19T16:52:31.214Z,97476.91
2023-02-19T16:54:32.716Z,97484.25
2023-02-19T16:56:34.336Z,97490.41
2023-02-19T16:58:37.591Z,97487.31
2023-02-19T17:00:40.323Z,97496.50
2023-02-19T17:02:41.934Z,97502.69
2023-02-19T17:04:43.704Z,97501.53
2023-02-19T17:06:47.478Z,97516.53
2023-02-19T17:08:49.036Z,97524.63
2023-02-19T17:10:50.754Z,97530.41
2023-02-19T17:12:53.853Z,97550.81
2023-02-19T17:14:55.449Z,97538.44
2023-02-19T17:16:56.953Z,97548.47
2023-02-19T17:18:58.753Z,97544.97
2023-02-19T17:21:15.204Z,97548.06
2023-02-19T17:23:16.781Z,97544.09
2023-02-19T17:25:18.302Z,97551.41
2023-02-19T17:27:19.843Z,97562.53
2023-02-19T17:29:22.338Z,97548.72
2023-02-19T17:31:24.144Z,97559.44
2023-02-19T17:33:25.712Z,97568.63
2023-02-19T17:35:27.693Z,97567.09
2023-02-19T17:37:29.285Z,97558.31
2023-02-19T17:39:31.169Z,97565.19
2023-02-19T17:41:33.100Z,97560.97
2023-02-19T17:43:34.819Z,97567.09
2023-02-19T17:45:36.375Z,97566.34
2023-02-19T17:47:37.913Z,97570.16
2023-02-19T17:49:39.573Z,97573.59
2023-02-19T17:51:41.570Z,97572.47
2023-02-19T17:53:43.845Z,97570.53
2023-02-19T17:55:45.795Z,97573.19
2023-02-19T17:57:50.403Z,97574.34
2023-02-19T17:59:51.902Z,97577.88
2023-02-19T18:01:53.541Z,97585.84
2023-02-19T18:03:55.176Z,97585.53
2023-02-19T18:05:56.719Z,97587.84
2023-02-19T18:07:58.456Z,97594.06
2023-02-19T18:09:59.987Z,97601.00
2023-02-19T18:12:02.381Z,97607.53
2023-02-19T18:14:03.923Z,97605.59
2023-02-19T18:16:06.951Z,97614.88
2023-02-19T18:18:09.664Z,97615.97
2023-02-19T18:20:23.301Z,97616.25
2023-02-19T18:22:24.830Z,97615.94
2023-02-19T18:24:26.767Z,97628.66
2023-02-19T18:26:29.317Z,97621.06
2023-02-19T18:28:30.834Z,97626.34
2023-02-19T18:30:32.390Z,97626.72
2023-02-19T18:32:34.044Z,97626.97
2023-02-19T18:34:36.304Z,97624.75
2023-02-19T18:36:37.842Z,97627.81
2023-02-19T18:38:39.479Z,97623.28
2023-02-19T18:40:41.465Z,97620.94
2023-02-19T18:42:43.123Z,97630.22
2023-02-19T18:44:47.346Z,97622.44
2023-02-19T18:46:49.908Z,97620.22
2023-02-19T18:48:51.484Z,97614.41
2023-02-19T18:50:53.024Z,97621.75
2023-02-19T18:52:54.562Z,97618.94
2023-02-19T18:54:57.308Z,97626.34
2023-02-19T18:57:00.561Z,97621.00
2023-02-19T18:59:04.161Z,97619.53
2023-02-19T19:01:05.824Z,97618.72
2023-02-19T19:03:07.429Z,97619.47
2023-02-19T19:05:08.940Z,97621.78
2023-02-19T19:07:10.877Z,97620.16
2023-02-19T19:09:12.628Z,97613.25
2023-02-19T19:11:14.281Z,97617.50
2023-02-19T19:13:16.064Z,97614.00
2023-02-19T19:15:18.826Z,97620.16
2023-02-19T19:17:20.505Z,97616.34
2023-02-19T19:19:22.060Z,97621.31
2023-02-19T19:21:23.665Z,97626.75
2023-02-19T19:23:25.382Z,97627.50
2023-02-19T19:25:26.908Z,97627.13
2023-02-19T19:27:28.815Z,97623.22
2023-02-19T19:29:30.398Z,97624.00
2023-02-19T19:31:36.260Z,97630.19
2023-02-19T19:33:38.109Z,97629.66
2023-02-19T19:35:39.660Z,97625.53
2023-02-19T19:37:41.148Z,97629.78
2023-02-19T19:39:43.869Z,97622.25
2023-02-19T19:41:45.445Z,97630.41
2023-02-19T19:43:47.028Z,97629.19
2023-02-19T19:45:49.868Z,97628.38
2023-02-19T19:47:52.824Z,97639.19
2023-02-19T19:49:54.341Z,97631.91
2023-02-19T19:51:58.659Z,97647.66
2023-02-19T19:54:01.896Z,97643.06
2023-02-19T19:56:04.467Z,97636.22
2023-02-19T19:58:05.969Z,97648.38
2023-02-19T20:00:09.178Z,97649.22
2023-02-19T20:02:17.674Z,97643.84
2023-02-19T20:04:21.416Z,97648.06
2023-02-19T20:06:30.882Z,97653.50
2023-02-19T20:08:32.381Z,97649.16
2023-02-19T20:10:33.951Z,97653.03
2023-02-19T20:12:35.429Z,97646.84
2023-02-19T20:14:37.565Z,97646.47
2023-02-19T20:16:39.696Z,97649.91
2023-02-19T20:18:41.722Z,97644.94
2023-02-19T20:20:43.531Z,97645.31
2023-02-19T20:22:45.078Z,97648.38
2023-02-19T20:24:51.399Z,97649.22
2023-02-19T20:26:55.267Z,97652.16
2023-02-19T20:28:57.528Z,97661.84
2023-02-19T20:30:59.313Z,97658.41
2023-02-19T20:33:00.861Z,97662.28
2023-02-19T20:35:02.379Z,97659.22
2023-02-19T20:37:05.036Z,97666.41
2023-02-19T20:39:06.472Z,97660.97
2023-02-19T20:41:08.052Z,97652.88
2023-02-19T20:43:09.785Z,97662.09
2023-02-19T20:45:11.868Z,97669.38
2023-02-19T20:47:13.472Z,97668.97
2023-02-19T20:49:16.638Z,97676.38
2023-02-19T20:51:18.181Z,97670.63
2023-02-19T20:53:19.782Z,97676.66
2023-02-19T20:55:21.377Z,97673.63
2023-02-19T20:57:24.020Z,97678.63
2023-02-19T20:59:30.356Z,97681.38
2023-02-19T21:01:31.945Z,97673.69
2023-02-19T21:03:33.448Z,97669.75
2023-02-19T21:05:37.030Z,97658.63
2023-02-19T21:07:38.528Z,97657.38
2023-02-19T21:09:40.244Z,97661.69
2023-02-19T21:11:42.587Z,97656.97
2023-02-19T21:13:44.152Z,97657.31
2023-02-19T21:15:45.665Z,97661.59
2023-02-19T21:17:47.649Z,97659.63
2023-02-19T21:19:50.333Z,97670.31
2023-02-19T21:21:51.881Z,97665.59
2023-02-19T21:23:54.700Z,97674.47
2023-02-19T21:25:56.382Z,97674.97
2023-02-19T21:27:57.839Z,97679.47
2023-02-19T21:29:59.362Z,97693.91
2023-02-19T21:32:01.398Z,97683.25
2023-02-19T21:34:05.162Z,97682.81
2023-02-19T21:36:07.130Z,97691.59
2023-02-19T21:38:08.623Z,97695.44
2023-02-19T21:40:12.203Z,97701.38
2023-02-19T21:42:13.797Z,97697.41
2023-02-19T21:44:16.820Z,97704.78
2023-02-19T21:46:19.327Z,97699.38
2023-02-19T21:48:20.964Z,97702.84
2023-02-19T21:50:22.758Z,97694.78
2023-02-19T21:52:24.337Z,97707.63
2023-02-19T21:54:26.071Z,97701.47
2023-02-19T21:56:30.627Z,97708.06
2023-02-19T21:58:32.251Z,97707.34
2023-02-19T22:00:33.809Z,97710.88
2023-02-19T22:02:35.477Z,97701.81
2023-02-19T22:04:37.027Z,97701.47
2023-02-19T22:06:41.713Z,97706.09
2023-02-19T22:08:44.262Z,97710.03
2023-02-19T22:10:45.817Z,97720.25
2023-02-19T22:12:47.848Z,97722.13
2023-02-19T22:14:49.474Z,97723.69
2023-02-19T22:16:51.621Z,97719.19
2023-02-19T22:18:56.360Z,97720.03
2023-02-19T22:20:58.170Z,97721.59
2023-02-19T22:22:59.703Z,97717.84
2023-02-19T22:25:01.609Z,97718.03
2023-02-19T22:27:05.007Z,97718.47
2023-02-19T22:29:08.174Z,97717.28
2023-02-19T22:31:09.646Z,97720.78
2023-02-19T22:33:11.316Z,97719.22
2023-02-19T22:35:15.455Z,97719.56
2023-02-19T22:37:17.654Z,97723.06
2023-02-19T22:39:25.554Z,97723.97
2023-02-19T22:41:27.210Z,97717.13
2023-02-19T22:43:28.831Z,97735.88
2023-02-19T22:45:30.745Z,97738.19
2023-02-19T22:47:32.364Z,97740.59
2023-02-19T22:49:33.982Z,97732.41
2023-02-19T22:51:35.636Z,97727.50
2023-02-19T22:53:37.485Z,97725.06
2023-02-19T22:55:39.010Z,97726.59
2023-02-19T22:57:40.511Z,97725.72
2023-02-19T22:59:42.088Z,97724.25
2023-02-19T23:01:43.583Z,97719.28
2023-02-19T23:03:59.533Z,97713.63
2023-02-19T23:06:04.765Z,97712.75
2023-02-19T23:08:06.342Z,97724.50
2023-02-19T23:10:08.404Z,97713.59
2023-02-19T23:12:11.882Z,97712.34
2023-02-19T23:14:16.793Z,97706.91
2023-02-19T23:16:18.424Z,97712.94
2023-02-19T23:18:20.402Z,97705.28
2023-02-19T23:20:21.967Z,97712.75
2023-02-19T23:22:23.851Z,97715.97
2023-02-19T23:24:26.005Z,97723.69
2023-02-19T23:26:27.728Z,97726.06
2023-02-19T23:28:29.511Z,97730.31
2023-02-19T23:30:31.049Z,97726.97
2023-02-19T23:32:33.468Z,97730.44
2023-02-19T23:34:35.192Z,97731.31
2023-02-19T23:36:44.031Z,97739.63
2023-02-19T23:38:46.758Z,97726.69
2023-02-19T23:40:48.164Z,97730.34
2023-02-19T23:42:49.924Z,97733.34
2023-02-19T23:44:51.446Z,97736.03
2023-02-19T23:46:53.248Z,97741.00
2023-02-19T23:48:54.858Z,97739.47
2023-02-19T23:50:56.831Z,97734.00
2023-02-19T23:52:59.198Z,97728.66
2023-02-19T23:55:01.105Z,97720.31
2023-02-19T23:57:02.975Z,97726.03
2023-02-19T23:59:05.912Z,97719.31
